sensor_id;sensor_type;location;lat;lon;timestamp;pressure;altitude;pressure_sealevel;temperature;humidity
59443;BME280;45247;47.466;19.004;2023-01-31T00:02:26;99517.84;;;0.70;100.00
59443;BME280;45247;47.466;19.004;2023-01-31T00:04:57;99533.50;;;0.67;100.00
59443;BME280;45247;47.466;19.004;2023-01-31T00:07:25;99536.94;;;0.69;100.00
59443;BME280;45247;47.466;19.004;2023-01-31T00:09:53;99524.81;;;0.68;100.00
59443;BME280;45247;47.466;19.004;2023-01-31T00:12:22;99520.25;;;0.78;100.00
59443;BME280;45247;47.466;19.004;2023-01-31T00:14:51;99520.19;;;0.79;100.00
59443;BME280;45247;47.466;19.004;2023-01-31T00:17:19;99519.16;;;0.86;100.00
59443;BME280;45247;47.466;19.004;2023-01-31T00:19:48;99525.56;;;1.06;100.00
59443;BME280;45247;47.466;19.004;2023-01-31T00:22:16;99515.44;;;1.28;100.00
59443;BME280;45247;47.466;19.004;2023-01-31T00:24:44;99528.16;;;1.38;100.00
59443;BME280;45247;47.466;19.004;2023-01-31T00:27:12;99521.97;;;1.41;100.00
59443;BME280;45247;47.466;19.004;2023-01-31T00:29:40;99512.47;;;1.41;100.00
59443;BME280;45247;47.466;19.004;2023-01-31T00:32:10;99508.69;;;1.52;100.00
59443;BME280;45247;47.466;19.004;2023-01-31T00:34:38;99480.84;;;1.55;100.00
59443;BME280;45247;47.466;19.004;2023-01-31T00:37:06;99479.88;;;1.59;100.00
59443;BME280;45247;47.466;19.004;2023-01-31T00:39:34;99472.56;;;1.70;100.00
59443;BME280;45247;47.466;19.004;2023-01-31T00:42:03;99467.56;;;1.64;100.00
59443;BME280;45247;47.466;19.004;2023-01-31T00:44:31;99484.66;;;1.73;100.00
59443;BME280;45247;47.466;19.004;2023-01-31T00:46:59;99472.34;;;1.78;100.00
59443;BME280;45247;47.466;19.004;2023-01-31T00:49:28;99476.50;;;1.84;100.00
59443;BME280;45247;47.466;19.004;2023-01-31T00:51:57;99454.94;;;1.80;100.00
59443;BME280;45247;47.466;19.004;2023-01-31T00:54:25;99473.50;;;1.97;100.00
59443;BME280;45247;47.466;19.004;2023-01-31T00:56:53;99473.63;;;1.93;100.00
59443;BME280;45247;47.466;19.004;2023-01-31T00:59:21;99460.94;;;1.82;100.00
59443;BME280;45247;47.466;19.004;2023-01-31T01:01:49;99471.44;;;1.79;100.00
59443;BME280;45247;47.466;19.004;2023-01-31T01:04:17;99459.03;;;1.87;100.00
59443;BME280;45247;47.466;19.004;2023-01-31T01:06:47;99473.75;;;1.88;100.00
59443;BME280;45247;47.466;19.004;2023-01-31T01:09:16;99482.31;;;1.92;100.00
59443;BME280;45247;47.466;19.004;2023-01-31T01:11:44;99460.56;;;1.94;100.00
59443;BME280;45247;47.466;19.004;2023-01-31T01:14:12;99466.41;;;2.01;100.00
59443;BME280;45247;47.466;19.004;2023-01-31T01:16:40;99477.50;;;2.08;100.00
59443;BME280;45247;47.466;19.004;2023-01-31T01:19:12;99476.97;;;1.96;100.00
59443;BME280;45247;47.466;19.004;2023-01-31T01:21:40;99473.38;;;2.00;100.00
59443;BME280;45247;47.466;19.004;2023-01-31T01:24:15;99479.56;;;1.96;100.00
59443;BME280;45247;47.466;19.004;2023-01-31T01:26:44;99474.63;;;1.89;100.00
59443;BME280;45247;47.466;19.004;2023-01-31T01:29:13;99463.94;;;1.98;100.00
59443;BME280;45247;47.466;19.004;2023-01-31T01:31:41;99478.56;;;2.02;100.00
59443;BME280;45247;47.466;19.004;2023-01-31T01:34:12;99490.50;;;2.08;100.00
59443;BME280;45247;47.466;19.004;2023-01-31T01:36:41;99500.00;;;2.10;100.00
59443;BME280;45247;47.466;19.004;2023-01-31T01:39:14;99495.03;;;2.03;100.00
59443;BME280;45247;47.466;19.004;2023-01-31T01:41:43;99510.50;;;2.07;100.00
59443;BME280;45247;47.466;19.004;2023-01-31T01:44:42;99508.53;;;2.14;100.00
59443;BME280;45247;47.466;19.004;2023-01-31T01:47:15;99523.59;;;2.04;100.00
59443;BME280;45247;47.466;19.004;2023-01-31T01:50:08;99533.44;;;1.94;100.00
59443;BME280;45247;47.466;19.004;2023-01-31T01:52:39;99525.56;;;1.97;100.00
59443;BME280;45247;47.466;19.004;2023-01-31T01:55:17;99527.25;;;1.98;100.00
59443;BME280;45247;47.466;19.004;2023-01-31T01:57:49;99522.31;;;1.89;100.00
59443;BME280;45247;47.466;19.004;2023-01-31T02:00:20;99529.94;;;1.95;100.00
59443;BME280;45247;47.466;19.004;2023-01-31T02:02:52;99548.25;;;1.92;100.00
59443;BME280;45247;47.466;19.004;2023-01-31T02:05:27;99548.22;;;1.94;100.00
59443;BME280;45247;47.466;19.004;2023-01-31T02:07:56;99546.59;;;1.90;100.00
59443;BME280;45247;47.466;19.004;2023-01-31T02:10:30;99560.38;;;1.93;100.00
59443;BME280;45247;47.466;19.004;2023-01-31T02:13:00;99559.47;;;1.94;100.00
59443;BME280;45247;47.466;19.004;2023-01-31T02:15:29;99569.97;;;1.91;100.00
59443;BME280;45247;47.466;19.004;2023-01-31T02:17:58;99583.69;;;1.96;100.00
59443;BME280;45247;47.466;19.004;2023-01-31T02:20:42;99577.00;;;1.88;100.00
59443;BME280;45247;47.466;19.004;2023-01-31T02:29:37;99597.09;;;1.84;100.00
59443;BME280;45247;47.466;19.004;2023-01-31T02:35:27;99584.88;;;1.86;100.00
59443;BME280;45247;47.466;19.004;2023-01-31T02:38:07;99590.22;;;1.82;100.00
59443;BME280;45247;47.466;19.004;2023-01-31T02:40:46;99597.97;;;1.83;100.00
59443;BME280;45247;47.466;19.004;2023-01-31T02:43:19;99599.56;;;1.87;100.00
59443;BME280;45247;47.466;19.004;2023-01-31T02:45:55;99603.94;;;1.87;100.00
59443;BME280;45247;47.466;19.004;2023-01-31T02:48:30;99600.56;;;1.83;100.00
59443;BME280;45247;47.466;19.004;2023-01-31T02:51:06;99584.06;;;1.84;100.00
59443;BME280;45247;47.466;19.004;2023-01-31T02:53:41;99603.28;;;1.80;100.00
59443;BME280;45247;47.466;19.004;2023-01-31T02:56:15;99612.81;;;1.80;100.00
59443;BME280;45247;47.466;19.004;2023-01-31T02:58:52;99598.88;;;1.82;100.00
59443;BME280;45247;47.466;19.004;2023-01-31T03:01:26;99596.53;;;1.73;100.00
59443;BME280;45247;47.466;19.004;2023-01-31T03:03:57;99604.50;;;1.67;100.00
59443;BME280;45247;47.466;19.004;2023-01-31T03:06:59;99626.13;;;1.69;100.00
59443;BME280;45247;47.466;19.004;2023-01-31T03:09:33;99612.13;;;1.73;100.00
59443;BME280;45247;47.466;19.004;2023-01-31T03:12:20;99611.88;;;1.82;100.00
59443;BME280;45247;47.466;19.004;2023-01-31T03:15:04;99639.69;;;1.80;100.00
59443;BME280;45247;47.466;19.004;2023-01-31T03:17:44;99638.72;;;1.84;100.00
59443;BME280;45247;47.466;19.004;2023-01-31T03:20:17;99637.69;;;1.90;100.00
59443;BME280;45247;47.466;19.004;2023-01-31T03:22:50;99641.41;;;1.81;100.00
59443;BME280;45247;47.466;19.004;2023-01-31T03:25:22;99648.03;;;1.91;100.00
59443;BME280;45247;47.466;19.004;2023-01-31T03:27:53;99648.25;;;1.84;100.00
59443;BME280;45247;47.466;19.004;2023-01-31T03:30:26;99653.16;;;1.94;100.00
59443;BME280;45247;47.466;19.004;2023-01-31T03:33:01;99658.59;;;1.87;100.00
59443;BME280;45247;47.466;19.004;2023-01-31T03:35:32;99642.06;;;1.88;100.00
59443;BME280;45247;47.466;19.004;2023-01-31T03:38:10;99658.91;;;1.76;100.00
59443;BME280;45247;47.466;19.004;2023-01-31T03:40:45;99656.44;;;1.71;100.00
59443;BME280;45247;47.466;19.004;2023-01-31T03:43:17;99651.44;;;1.62;100.00
59443;BME280;45247;47.466;19.004;2023-01-31T03:45:51;99653.25;;;1.60;100.00
59443;BME280;45247;47.466;19.004;2023-01-31T03:48:25;99656.88;;;1.55;100.00
59443;BME280;45247;47.466;19.004;2023-01-31T03:50:56;99656.13;;;1.49;100.00
59443;BME280;45247;47.466;19.004;2023-01-31T03:53:31;99679.63;;;1.46;100.00
59443;BME280;45247;47.466;19.004;2023-01-31T03:56:04;99673.53;;;1.47;100.00
59443;BME280;45247;47.466;19.004;2023-01-31T03:58:39;99680.28;;;1.55;100.00
59443;BME280;45247;47.466;19.004;2023-01-31T04:01:09;99689.81;;;1.54;100.00
59443;BME280;45247;47.466;19.004;2023-01-31T04:03:40;99676.84;;;1.53;100.00
59443;BME280;45247;47.466;19.004;2023-01-31T04:06:10;99697.72;;;1.49;100.00
59443;BME280;45247;47.466;19.004;2023-01-31T04:08:41;99683.94;;;1.47;100.00
59443;BME280;45247;47.466;19.004;2023-01-31T04:11:12;99699.66;;;1.43;100.00
59443;BME280;45247;47.466;19.004;2023-01-31T04:13:41;99715.94;;;1.51;100.00
59443;BME280;45247;47.466;19.004;2023-01-31T04:16:09;99711.56;;;1.52;100.00
59443;BME280;45247;47.466;19.004;2023-01-31T04:18:38;99716.03;;;1.46;100.00
59443;BME280;45247;47.466;19.004;2023-01-31T04:21:06;99716.78;;;1.52;100.00
59443;BME280;45247;47.466;19.004;2023-01-31T04:23:36;99695.25;;;1.45;100.00
59443;BME280;45247;47.466;19.004;2023-01-31T04:26:05;99723.69;;;1.53;100.00
59443;BME280;45247;47.466;19.004;2023-01-31T04:28:33;99717.56;;;1.55;100.00
59443;BME280;45247;47.466;19.004;2023-01-31T04:31:02;99713.44;;;1.46;100.00
59443;BME280;45247;47.466;19.004;2023-01-31T04:33:30;99728.22;;;1.44;100.00
59443;BME280;45247;47.466;19.004;2023-01-31T04:35:58;99733.50;;;1.41;100.00
59443;BME280;45247;47.466;19.004;2023-01-31T04:38:27;99730.13;;;1.38;100.00
59443;BME280;45247;47.466;19.004;2023-01-31T04:40:55;99733.59;;;1.38;100.00
59443;BME280;45247;47.466;19.004;2023-01-31T04:43:24;99741.34;;;1.40;100.00
59443;BME280;45247;47.466;19.004;2023-01-31T04:45:52;99742.91;;;1.45;100.00
59443;BME280;45247;47.466;19.004;2023-01-31T04:48:20;99740.13;;;1.53;100.00
59443;BME280;45247;47.466;19.004;2023-01-31T04:50:49;99744.66;;;1.46;100.00
59443;BME280;45247;47.466;19.004;2023-01-31T04:53:17;99756.63;;;1.52;100.00
59443;BME280;45247;47.466;19.004;2023-01-31T04:55:47;99759.00;;;1.61;100.00
59443;BME280;45247;47.466;19.004;2023-01-31T04:58:15;99768.69;;;1.56;100.00
59443;BME280;45247;47.466;19.004;2023-01-31T05:00:45;99773.88;;;1.56;100.00
59443;BME280;45247;47.466;19.004;2023-01-31T05:03:13;99782.59;;;1.54;100.00
59443;BME280;45247;47.466;19.004;2023-01-31T05:05:41;99789.56;;;1.53;100.00
59443;BME280;45247;47.466;19.004;2023-01-31T05:08:09;99811.16;;;1.57;100.00
59443;BME280;45247;47.466;19.004;2023-01-31T05:10:37;99784.28;;;1.56;100.00
59443;BME280;45247;47.466;19.004;2023-01-31T05:13:06;99788.66;;;1.54;100.00
59443;BME280;45247;47.466;19.004;2023-01-31T05:15:34;99764.44;;;1.52;100.00
59443;BME280;45247;47.466;19.004;2023-01-31T05:18:05;99773.69;;;1.64;100.00
59443;BME280;45247;47.466;19.004;2023-01-31T05:20:36;99765.09;;;1.60;100.00
59443;BME280;45247;47.466;19.004;2023-01-31T05:23:06;99763.53;;;1.53;100.00
59443;BME280;45247;47.466;19.004;2023-01-31T05:25:35;99776.78;;;1.44;100.00
59443;BME280;45247;47.466;19.004;2023-01-31T05:28:04;99776.00;;;1.40;100.00
59443;BME280;45247;47.466;19.004;2023-01-31T05:30:32;99759.53;;;1.40;100.00
59443;BME280;45247;47.466;19.004;2023-01-31T05:33:01;99774.34;;;1.36;100.00
59443;BME280;45247;47.466;19.004;2023-01-31T05:35:30;99774.50;;;1.30;100.00
59443;BME280;45247;47.466;19.004;2023-01-31T05:37:59;99776.16;;;1.34;100.00
59443;BME280;45247;47.466;19.004;2023-01-31T05:40:27;99788.31;;;1.32;100.00
59443;BME280;45247;47.466;19.004;2023-01-31T05:42:57;99796.28;;;1.26;100.00
59443;BME280;45247;47.466;19.004;2023-01-31T05:45:27;99792.03;;;1.22;100.00
59443;BME280;45247;47.466;19.004;2023-01-31T05:47:56;99819.94;;;1.14;100.00
59443;BME280;45247;47.466;19.004;2023-01-31T05:50:24;99793.16;;;1.10;100.00
59443;BME280;45247;47.466;19.004;2023-01-31T05:52:56;99805.25;;;1.11;100.00
59443;BME280;45247;47.466;19.004;2023-01-31T05:55:25;99816.53;;;1.12;100.00
59443;BME280;45247;47.466;19.004;2023-01-31T05:57:54;99813.25;;;1.04;100.00
59443;BME280;45247;47.466;19.004;2023-01-31T06:00:22;99808.19;;;0.97;100.00
59443;BME280;45247;47.466;19.004;2023-01-31T06:02:51;99818.56;;;0.97;100.00
59443;BME280;45247;47.466;19.004;2023-01-31T06:05:19;99820.56;;;0.86;100.00
59443;BME280;45247;47.466;19.004;2023-01-31T06:07:47;99833.63;;;0.83;100.00
59443;BME280;45247;47.466;19.004;2023-01-31T06:10:17;99834.50;;;0.82;100.00
59443;BME280;45247;47.466;19.004;2023-01-31T06:12:46;99828.63;;;0.74;100.00
59443;BME280;45247;47.466;19.004;2023-01-31T06:15:15;99822.44;;;0.80;100.00
59443;BME280;45247;47.466;19.004;2023-01-31T06:17:44;99833.66;;;0.82;100.00
59443;BME280;45247;47.466;19.004;2023-01-31T06:20:12;99823.13;;;0.88;100.00
59443;BME280;45247;47.466;19.004;2023-01-31T06:22:40;99836.00;;;0.92;100.00
59443;BME280;45247;47.466;19.004;2023-01-31T06:25:09;99833.47;;;0.89;100.00
59443;BME280;45247;47.466;19.004;2023-01-31T06:27:38;99842.00;;;0.96;100.00
59443;BME280;45247;47.466;19.004;2023-01-31T06:30:08;99840.09;;;1.04;100.00
59443;BME280;45247;47.466;19.004;2023-01-31T06:32:37;99847.00;;;1.05;100.00
59443;BME280;45247;47.466;19.004;2023-01-31T06:35:05;99847.84;;;1.06;100.00
59443;BME280;45247;47.466;19.004;2023-01-31T06:37:33;99851.00;;;1.20;100.00
59443;BME280;45247;47.466;19.004;2023-01-31T06:40:02;99847.25;;;1.33;100.00
59443;BME280;45247;47.466;19.004;2023-01-31T06:42:30;99862.88;;;1.33;100.00
59443;BME280;45247;47.466;19.004;2023-01-31T06:45:00;99843.50;;;1.46;100.00
59443;BME280;45247;47.466;19.004;2023-01-31T06:47:28;99835.63;;;1.48;100.00
59443;BME280;45247;47.466;19.004;2023-01-31T06:49:56;99850.28;;;1.52;100.00
59443;BME280;45247;47.466;19.004;2023-01-31T06:52:24;99847.56;;;1.57;100.00
59443;BME280;45247;47.466;19.004;2023-01-31T06:54:52;99848.31;;;1.62;100.00
59443;BME280;45247;47.466;19.004;2023-01-31T06:57:21;99853.44;;;1.65;100.00
59443;BME280;45247;47.466;19.004;2023-01-31T06:59:49;99857.75;;;1.67;100.00
59443;BME280;45247;47.466;19.004;2023-01-31T07:02:18;99834.09;;;1.75;100.00
59443;BME280;45247;47.466;19.004;2023-01-31T07:04:46;99837.44;;;1.82;100.00
59443;BME280;45247;47.466;19.004;2023-01-31T07:07:15;99847.84;;;1.82;100.00
59443;BME280;45247;47.466;19.004;2023-01-31T07:09:43;99861.47;;;1.91;100.00
59443;BME280;45247;47.466;19.004;2023-01-31T07:12:12;99849.13;;;1.99;100.00
59443;BME280;45247;47.466;19.004;2023-01-31T07:14:40;99868.13;;;2.03;100.00
59443;BME280;45247;47.466;19.004;2023-01-31T07:17:09;99859.19;;;2.13;100.00
59443;BME280;45247;47.466;19.004;2023-01-31T07:19:38;99856.56;;;2.13;100.00
59443;BME280;45247;47.466;19.004;2023-01-31T07:22:06;99848.63;;;2.19;100.00
59443;BME280;45247;47.466;19.004;2023-01-31T07:24:34;99865.81;;;2.25;100.00
59443;BME280;45247;47.466;19.004;2023-01-31T07:27:03;99881.38;;;2.28;100.00
59443;BME280;45247;47.466;19.004;2023-01-31T07:29:31;99880.41;;;2.32;100.00
59443;BME280;45247;47.466;19.004;2023-01-31T07:31:59;99875.19;;;2.32;100.00
59443;BME280;45247;47.466;19.004;2023-01-31T07:34:27;99884.72;;;2.33;100.00
59443;BME280;45247;47.466;19.004;2023-01-31T07:36:57;99889.84;;;2.36;100.00
59443;BME280;45247;47.466;19.004;2023-01-31T07:39:27;99888.03;;;2.38;100.00
59443;BME280;45247;47.466;19.004;2023-01-31T07:41:55;99910.56;;;2.41;100.00
59443;BME280;45247;47.466;19.004;2023-01-31T07:44:23;99904.38;;;2.45;100.00
59443;BME280;45247;47.466;19.004;2023-01-31T07:46:52;99905.22;;;2.45;100.00
59443;BME280;45247;47.466;19.004;2023-01-31T07:49:22;99924.28;;;2.47;100.00
59443;BME280;45247;47.466;19.004;2023-01-31T07:51:50;99905.06;;;2.51;100.00
59443;BME280;45247;47.466;19.004;2023-01-31T07:54:20;99914.47;;;2.57;100.00
59443;BME280;45247;47.466;19.004;2023-01-31T07:56:48;99916.97;;;2.62;100.00
59443;BME280;45247;47.466;19.004;2023-01-31T07:59:16;99923.56;;;2.75;100.00
59443;BME280;45247;47.466;19.004;2023-01-31T08:01:48;99917.34;;;2.79;100.00
59443;BME280;45247;47.466;19.004;2023-01-31T08:04:35;99945.84;;;2.85;100.00
59443;BME280;45247;47.466;19.004;2023-01-31T08:07:03;99948.31;;;2.91;100.00
59443;BME280;45247;47.466;19.004;2023-01-31T08:09:34;99942.31;;;2.88;100.00
59443;BME280;45247;47.466;19.004;2023-01-31T08:12:05;99926.03;;;2.80;100.00
59443;BME280;45247;47.466;19.004;2023-01-31T08:14:36;99950.81;;;2.94;100.00
59443;BME280;45247;47.466;19.004;2023-01-31T08:17:05;99965.44;;;3.00;100.00
59443;BME280;45247;47.466;19.004;2023-01-31T08:19:34;99971.50;;;3.00;100.00
59443;BME280;45247;47.466;19.004;2023-01-31T08:22:05;99973.28;;;2.98;100.00
59443;BME280;45247;47.466;19.004;2023-01-31T08:24:45;99989.66;;;3.04;100.00
59443;BME280;45247;47.466;19.004;2023-01-31T08:27:14;99985.22;;;3.07;100.00
59443;BME280;45247;47.466;19.004;2023-01-31T08:29:42;99998.25;;;3.09;100.00
59443;BME280;45247;47.466;19.004;2023-01-31T08:32:11;100013.56;;;3.19;100.00
59443;BME280;45247;47.466;19.004;2023-01-31T08:34:42;100026.63;;;3.19;100.00
59443;BME280;45247;47.466;19.004;2023-01-31T08:37:10;100012.66;;;3.22;100.00
59443;BME280;45247;47.466;19.004;2023-01-31T08:39:39;100016.31;;;3.15;100.00
59443;BME280;45247;47.466;19.004;2023-01-31T08:42:08;100045.81;;;3.17;100.00
59443;BME280;45247;47.466;19.004;2023-01-31T08:44:36;100034.38;;;3.22;100.00
59443;BME280;45247;47.466;19.004;2023-01-31T08:47:04;100043.00;;;3.24;100.00
59443;BME280;45247;47.466;19.004;2023-01-31T08:49:33;100048.84;;;3.34;100.00
59443;BME280;45247;47.466;19.004;2023-01-31T08:52:03;100053.78;;;3.43;100.00
59443;BME280;45247;47.466;19.004;2023-01-31T08:54:31;100055.50;;;3.44;100.00
59443;BME280;45247;47.466;19.004;2023-01-31T08:56:59;100060.47;;;3.54;100.00
59443;BME280;45247;47.466;19.004;2023-01-31T08:59:28;100059.53;;;3.56;100.00
59443;BME280;45247;47.466;19.004;2023-01-31T09:01:57;100059.22;;;3.67;100.00
59443;BME280;45247;47.466;19.004;2023-01-31T09:04:25;100047.13;;;3.63;100.00
59443;BME280;45247;47.466;19.004;2023-01-31T09:06:53;100054.25;;;3.58;100.00
59443;BME280;45247;47.466;19.004;2023-01-31T09:09:21;100059.66;;;3.51;100.00
59443;BME280;45247;47.466;19.004;2023-01-31T09:11:52;100061.38;;;3.53;100.00
59443;BME280;45247;47.466;19.004;2023-01-31T09:14:20;100053.53;;;3.53;100.00
59443;BME280;45247;47.466;19.004;2023-01-31T09:16:50;100066.38;;;3.60;100.00
59443;BME280;45247;47.466;19.004;2023-01-31T09:19:18;100062.78;;;3.64;100.00
59443;BME280;45247;47.466;19.004;2023-01-31T09:21:48;100071.34;;;3.68;100.00
59443;BME280;45247;47.466;19.004;2023-01-31T09:24:20;100065.19;;;3.70;100.00
59443;BME280;45247;47.466;19.004;2023-01-31T09:26:48;100079.56;;;3.85;100.00
59443;BME280;45247;47.466;19.004;2023-01-31T09:29:17;100077.84;;;3.84;100.00
59443;BME280;45247;47.466;19.004;2023-01-31T09:31:45;100077.13;;;3.79;100.00
59443;BME280;45247;47.466;19.004;2023-01-31T09:34:16;100083.16;;;3.81;100.00
59443;BME280;45247;47.466;19.004;2023-01-31T09:36:45;100065.84;;;3.79;100.00
59443;BME280;45247;47.466;19.004;2023-01-31T09:39:13;100063.34;;;3.74;100.00
59443;BME280;45247;47.466;19.004;2023-01-31T09:42:05;100060.41;;;3.85;100.00
59443;BME280;45247;47.466;19.004;2023-01-31T09:44:43;100078.47;;;3.92;100.00
59443;BME280;45247;47.466;19.004;2023-01-31T09:47:19;100081.53;;;4.07;100.00
59443;BME280;45247;47.466;19.004;2023-01-31T09:49:55;100104.94;;;4.39;100.00
59443;BME280;45247;47.466;19.004;2023-01-31T09:52:26;100083.16;;;4.39;100.00
59443;BME280;45247;47.466;19.004;2023-01-31T09:54:56;100103.00;;;4.46;100.00
59443;BME280;45247;47.466;19.004;2023-01-31T09:57:33;100080.13;;;4.24;100.00
59443;BME280;45247;47.466;19.004;2023-01-31T10:00:18;100090.66;;;4.21;100.00
59443;BME280;45247;47.466;19.004;2023-01-31T10:03:21;100089.44;;;4.33;100.00
59443;BME280;45247;47.466;19.004;2023-01-31T10:05:59;100089.25;;;4.39;100.00
59443;BME280;45247;47.466;19.004;2023-01-31T10:08:39;100079.09;;;4.30;100.00
59443;BME280;45247;47.466;19.004;2023-01-31T10:11:15;100087.72;;;4.32;100.00
59443;BME280;45247;47.466;19.004;2023-01-31T10:13:48;100093.84;;;4.31;100.00
59443;BME280;45247;47.466;19.004;2023-01-31T10:16:25;100096.81;;;4.20;100.00
59443;BME280;45247;47.466;19.004;2023-01-31T10:19:00;100096.84;;;4.19;100.00
59443;BME280;45247;47.466;19.004;2023-01-31T10:21:35;100088.41;;;4.39;100.00
59443;BME280;45247;47.466;19.004;2023-01-31T10:24:12;100098.00;;;4.38;100.00
59443;BME280;45247;47.466;19.004;2023-01-31T10:26:44;100086.41;;;4.47;100.00
59443;BME280;45247;47.466;19.004;2023-01-31T10:29:17;100090.94;;;4.68;100.00
59443;BME280;45247;47.466;19.004;2023-01-31T10:31:57;100076.00;;;4.72;100.00
59443;BME280;45247;47.466;19.004;2023-01-31T10:34:28;100081.13;;;4.75;100.00
59443;BME280;45247;47.466;19.004;2023-01-31T10:37:04;100069.63;;;4.54;100.00
59443;BME280;45247;47.466;19.004;2023-01-31T10:39:37;100078.34;;;4.80;100.00
59443;BME280;45247;47.466;19.004;2023-01-31T10:42:14;100070.16;;;4.90;100.00
59443;BME280;45247;47.466;19.004;2023-01-31T10:44:50;100093.91;;;4.84;100.00
59443;BME280;45247;47.466;19.004;2023-01-31T10:47:21;100082.09;;;4.72;100.00
59443;BME280;45247;47.466;19.004;2023-01-31T10:49:49;100078.88;;;4.64;100.00
59443;BME280;45247;47.466;19.004;2023-01-31T10:52:40;100082.22;;;4.41;100.00
59443;BME280;45247;47.466;19.004;2023-01-31T10:55:39;100083.47;;;4.30;100.00
59443;BME280;45247;47.466;19.004;2023-01-31T10:58:13;100075.50;;;4.61;100.00
59443;BME280;45247;47.466;19.004;2023-01-31T11:00:43;100066.88;;;4.59;100.00
59443;BME280;45247;47.466;19.004;2023-01-31T11:03:13;100087.03;;;4.53;100.00
59443;BME280;45247;47.466;19.004;2023-01-31T11:05:46;100059.81;;;4.61;100.00
59443;BME280;45247;47.466;19.004;2023-01-31T11:08:31;100053.44;;;4.69;100.00
59443;BME280;45247;47.466;19.004;2023-01-31T11:11:05;100053.09;;;4.80;100.00
59443;BME280;45247;47.466;19.004;2023-01-31T11:13:34;100058.19;;;4.83;100.00
59443;BME280;45247;47.466;19.004;2023-01-31T11:16:03;100056.50;;;4.82;100.00
59443;BME280;45247;47.466;19.004;2023-01-31T11:18:36;100045.19;;;4.82;100.00
59443;BME280;45247;47.466;19.004;2023-01-31T11:21:05;100055.63;;;4.82;98.18
59443;BME280;45247;47.466;19.004;2023-01-31T11:23:35;100046.97;;;4.53;96.63
59443;BME280;45247;47.466;19.004;2023-01-31T11:26:04;100046.19;;;4.51;99.15
59443;BME280;45247;47.466;19.004;2023-01-31T11:28:34;100042.91;;;4.71;100.00
59443;BME280;45247;47.466;19.004;2023-01-31T11:31:04;100037.28;;;4.57;98.84
59443;BME280;45247;47.466;19.004;2023-01-31T11:33:42;100047.63;;;4.33;100.00
59443;BME280;45247;47.466;19.004;2023-01-31T11:36:16;100047.97;;;4.22;100.00
59443;BME280;45247;47.466;19.004;2023-01-31T11:38:52;100046.34;;;4.46;100.00
59443;BME280;45247;47.466;19.004;2023-01-31T11:41:30;100024.31;;;4.53;100.00
59443;BME280;45247;47.466;19.004;2023-01-31T11:44:11;100037.81;;;4.68;99.08
59443;BME280;45247;47.466;19.004;2023-01-31T11:46:53;100036.41;;;4.83;96.79
59443;BME280;45247;47.466;19.004;2023-01-31T11:49:30;100034.91;;;5.02;100.00
59443;BME280;45247;47.466;19.004;2023-01-31T11:52:12;100021.84;;;5.00;95.79
59443;BME280;45247;47.466;19.004;2023-01-31T11:54:46;100030.03;;;4.91;96.35
59443;BME280;45247;47.466;19.004;2023-01-31T11:57:21;100029.41;;;5.10;94.76
59443;BME280;45247;47.466;19.004;2023-01-31T11:59:52;100027.34;;;5.18;90.22
59443;BME280;45247;47.466;19.004;2023-01-31T12:02:26;100025.00;;;4.85;96.08
59443;BME280;45247;47.466;19.004;2023-01-31T12:04:58;100026.81;;;4.83;97.69
59443;BME280;45247;47.466;19.004;2023-01-31T12:07:40;100058.28;;;5.07;99.31
59443;BME280;45247;47.466;19.004;2023-01-31T12:10:29;100036.16;;;4.90;98.20
59443;BME280;45247;47.466;19.004;2023-01-31T12:13:01;100025.72;;;5.15;98.70
59443;BME280;45247;47.466;19.004;2023-01-31T12:15:55;100038.47;;;4.99;94.81
59443;BME280;45247;47.466;19.004;2023-01-31T12:19:13;100028.75;;;5.03;99.70
59443;BME280;45247;47.466;19.004;2023-01-31T12:22:30;100027.66;;;5.09;93.57
59443;BME280;45247;47.466;19.004;2023-01-31T12:25:07;100027.25;;;4.96;90.73
59443;BME280;45247;47.466;19.004;2023-01-31T12:27:50;100030.16;;;4.88;89.31
59443;BME280;45247;47.466;19.004;2023-01-31T12:30:33;100031.94;;;4.86;90.47
59443;BME280;45247;47.466;19.004;2023-01-31T12:33:18;100037.06;;;4.89;91.00
59443;BME280;45247;47.466;19.004;2023-01-31T12:36:00;100024.16;;;4.85;90.31
59443;BME280;45247;47.466;19.004;2023-01-31T12:38:42;100031.84;;;4.89;93.51
59443;BME280;45247;47.466;19.004;2023-01-31T12:41:23;100040.47;;;4.91;95.40
59443;BME280;45247;47.466;19.004;2023-01-31T12:44:16;100036.47;;;4.81;97.30
59443;BME280;45247;47.466;19.004;2023-01-31T12:47:03;100037.06;;;4.89;97.61
59443;BME280;45247;47.466;19.004;2023-01-31T12:49:47;100044.88;;;4.91;100.00
59443;BME280;45247;47.466;19.004;2023-01-31T12:52:23;100042.63;;;4.80;100.00
59443;BME280;45247;47.466;19.004;2023-01-31T12:55:05;100049.72;;;4.76;100.00
59443;BME280;45247;47.466;19.004;2023-01-31T12:57:42;100049.34;;;4.87;100.00
59443;BME280;45247;47.466;19.004;2023-01-31T13:00:26;100048.69;;;4.81;100.00
59443;BME280;45247;47.466;19.004;2023-01-31T13:03:08;100056.84;;;4.71;100.00
59443;BME280;45247;47.466;19.004;2023-01-31T13:05:46;100063.19;;;4.64;100.00
59443;BME280;45247;47.466;19.004;2023-01-31T13:08:18;100053.94;;;4.54;100.00
59443;BME280;45247;47.466;19.004;2023-01-31T13:10:52;100072.63;;;4.42;100.00
59443;BME280;45247;47.466;19.004;2023-01-31T13:13:25;100079.69;;;4.38;100.00
59443;BME280;45247;47.466;19.004;2023-01-31T13:16:00;100072.56;;;4.15;100.00
59443;BME280;45247;47.466;19.004;2023-01-31T13:18:32;100085.59;;;4.17;100.00
59443;BME280;45247;47.466;19.004;2023-01-31T13:21:04;100089.53;;;4.30;100.00
59443;BME280;45247;47.466;19.004;2023-01-31T13:23:37;100086.25;;;4.51;100.00
59443;BME280;45247;47.466;19.004;2023-01-31T13:26:10;100096.84;;;4.47;100.00